Time;durP1;ratioP1;P1;durP2;ratioP2;P2;SDS_P1;SDS_P2;PMS_P1;PMS_P2;Temp;Humidity;BMP_temperature;BMP_pressure;BME280_temperature;BME280_humidity;BME280_pressure;Samples;Min_cycle;Max_cycle;Signal;HPM_P1;HPM_P2
2020/12/18 00:00:24;;;;;;;0.20;0.20;;;6.30;99.90;;;;;;5056774;28;20040;-89
2020/12/18 00:02:49;;;;;;;1.02;0.40;;;6.30;99.90;;;;;;5064475;28;20025;-89
2020/12/18 00:05:15;;;;;;;0.00;0.00;;;6.30;99.90;;;;;;5063733;28;20040;-89
2020/12/18 00:07:42;;;;;;;1.42;0.70;;;6.30;99.90;;;;;;5071110;28;20024;-89
2020/12/18 00:10:08;;;;;;;0.20;0.20;;;6.20;99.90;;;;;;5050435;28;20518;-89
2020/12/18 00:12:34;;;;;;;0.10;0.10;;;6.20;99.90;;;;;;5039933;28;20210;-90
2020/12/18 00:14:59;;;;;;;0.28;0.28;;;6.20;99.90;;;;;;5041090;28;20119;-89
2020/12/18 00:17:25;;;;;;;0.45;0.45;;;6.20;99.90;;;;;;5034360;28;20021;-90
2020/12/18 00:19:51;;;;;;;0.30;0.30;;;6.10;99.90;;;;;;5050236;28;20041;-92
2020/12/18 00:22:17;;;;;;;0.10;0.10;;;6.10;99.90;;;;;;5038530;28;20086;-92
2020/12/18 00:24:43;;;;;;;0.13;0.13;;;6.10;99.90;;;;;;5041755;28;20096;-90
2020/12/18 00:27:10;;;;;;;0.55;0.43;;;6.10;99.90;;;;;;5055940;28;20028;-91
2020/12/18 00:29:35;;;;;;;0.05;0.05;;;6.10;99.90;;;;;;5057996;28;20082;-91
2020/12/18 00:32:05;;;;;;;0.38;0.38;;;6.10;99.90;;;;;;5057470;28;20387;-90
2020/12/18 00:34:31;;;;;;;0.22;0.22;;;6.00;99.90;;;;;;5040927;28;20028;-91
2020/12/18 00:36:57;;;;;;;0.10;0.10;;;6.10;99.90;;;;;;5037633;28;20029;-91
2020/12/18 00:39:22;;;;;;;0.20;0.20;;;6.00;99.90;;;;;;5037825;28;20482;-91
2020/12/18 00:41:53;;;;;;;0.03;0.03;;;6.00;99.90;;;;;;5037587;28;20080;-91
2020/12/18 00:44:19;;;;;;;0.30;0.30;;;6.00;99.90;;;;;;5037691;28;20021;-91
2020/12/18 00:46:45;;;;;;;0.13;0.13;;;6.00;99.90;;;;;;5037477;28;20060;-91
2020/12/18 00:49:14;;;;;;;0.50;0.47;;;5.90;99.90;;;;;;5043299;28;20051;-91
2020/12/18 00:51:40;;;;;;;0.10;0.10;;;6.00;99.90;;;;;;5056975;28;20025;-90
2020/12/18 00:54:06;;;;;;;0.15;0.15;;;6.00;99.90;;;;;;5057018;28;20028;-91
2020/12/18 00:56:32;;;;;;;0.80;0.80;;;6.00;99.90;;;;;;5057118;28;20056;-91
2020/12/18 01:02:20;;;;;;;0.38;0.38;;;6.00;99.90;;;;;;5073669;28;20162;-90
2020/12/18 01:04:45;;;;;;;0.10;0.10;;;6.00;99.90;;;;;;5052984;28;20112;-89
2020/12/18 01:07:11;;;;;;;0.10;0.10;;;5.90;99.90;;;;;;5057881;28;20114;-90
2020/12/18 01:09:37;;;;;;;0.10;0.10;;;5.90;99.90;;;;;;5049769;28;20024;-90
2020/12/18 01:12:03;;;;;;;0.20;0.20;;;5.90;99.90;;;;;;5052465;28;20024;-90
2020/12/18 01:14:29;;;;;;;0.20;0.20;;;5.90;99.90;;;;;;5052862;28;20485;-89
2020/12/18 01:16:55;;;;;;;0.20;0.20;;;5.90;99.90;;;;;;5062565;28;20040;-89
2020/12/18 01:19:22;;;;;;;0.10;0.10;;;5.80;99.90;;;;;;5067065;28;20105;-90
2020/12/18 01:21:49;;;;;;;0.47;0.45;;;5.80;99.90;;;;;;5051928;28;20112;-90
2020/12/18 01:24:19;;;;;;;0.10;0.10;;;5.90;99.90;;;;;;5051264;28;20633;-90
2020/12/18 01:26:48;;;;;;;0.68;0.68;;;5.90;99.90;;;;;;5069042;28;20032;-90
2020/12/18 01:29:14;;;;;;;0.73;0.73;;;5.80;99.90;;;;;;5053630;28;20032;-90
2020/12/18 01:31:40;;;;;;;1.67;0.87;;;5.80;99.90;;;;;;5070434;28;20039;-88
2020/12/18 01:34:06;;;;;;;1.25;0.77;;;5.80;99.90;;;;;;5059713;28;20286;-88
2020/12/18 01:36:31;;;;;;;2.80;0.63;;;5.80;99.90;;;;;;5066196;28;20021;-89
2020/12/18 01:38:57;;;;;;;0.10;0.10;;;5.70;99.90;;;;;;5064593;28;20029;-89
2020/12/18 01:41:23;;;;;;;0.10;0.10;;;5.70;99.90;;;;;;5051384;28;20108;-88
2020/12/18 01:43:49;;;;;;;0.30;0.30;;;5.70;99.90;;;;;;5069397;28;20040;-88
2020/12/18 01:46:15;;;;;;;0.30;0.30;;;5.70;99.90;;;;;;5058466;28;20521;-88
2020/12/18 01:48:42;;;;;;;0.20;0.20;;;5.60;99.90;;;;;;5041530;28;20099;-89
2020/12/18 01:51:12;;;;;;;0.15;0.15;;;5.60;99.90;;;;;;5053015;28;20035;-89
2020/12/18 01:53:43;;;;;;;0.10;0.10;;;5.60;99.90;;;;;;5045987;28;20024;-89
2020/12/18 01:56:09;;;;;;;0.50;0.50;;;5.60;99.90;;;;;;5051555;28;20123;-89
2020/12/18 01:58:38;;;;;;;0.10;0.10;;;5.60;99.90;;;;;;5069294;28;20028;-89
2020/12/18 02:01:06;;;;;;;0.20;0.20;;;5.60;99.90;;;;;;5068226;28;20028;-89
2020/12/18 02:03:33;;;;;;;0.10;0.10;;;5.60;99.90;;;;;;5051209;28;20025;-90
2020/12/18 02:06:06;;;;;;;1.38;1.27;;;5.60;99.90;;;;;;5069855;28;20078;-89
2020/12/18 02:08:32;;;;;;;0.10;0.10;;;5.60;99.90;;;;;;5051257;28;20044;-90
2020/12/18 02:10:59;;;;;;;0.55;0.55;;;5.50;99.90;;;;;;5041873;28;20584;-90
2020/12/18 02:13:25;;;;;;;3.38;0.77;;;5.60;99.90;;;;;;5059580;28;20079;-89
2020/12/18 02:15:52;;;;;;;0.17;0.17;;;5.50;99.90;;;;;;5061341;28;20824;-90
2020/12/18 02:18:19;;;;;;;0.10;0.10;;;5.50;99.90;;;;;;5068908;28;20045;-90
2020/12/18 02:20:46;;;;;;;0.10;0.10;;;5.50;99.90;;;;;;5051365;28;20469;-90
2020/12/18 02:23:12;;;;;;;0.10;0.10;;;5.50;99.90;;;;;;5070699;28;20044;-90
2020/12/18 02:25:39;;;;;;;0.63;0.63;;;5.50;99.90;;;;;;5068225;28;20523;-90
2020/12/18 02:28:06;;;;;;;0.30;0.30;;;5.40;99.90;;;;;;5047122;28;20073;-90
2020/12/18 02:30:32;;;;;;;0.10;0.10;;;5.40;99.90;;;;;;5049361;28;20029;-90
2020/12/18 02:33:02;;;;;;;0.10;0.10;;;5.40;99.90;;;;;;5058678;28;20035;-90
2020/12/18 02:35:28;;;;;;;0.25;0.25;;;5.30;99.90;;;;;;5051089;28;20029;-89
2020/12/18 02:37:54;;;;;;;0.65;0.40;;;5.30;99.90;;;;;;5067936;28;20762;-90
2020/12/18 02:40:19;;;;;;;0.43;0.43;;;5.30;99.90;;;;;;5058142;28;20020;-90
2020/12/18 02:42:45;;;;;;;1.65;1.15;;;5.30;99.90;;;;;;5052834;28;20028;-91
2020/12/18 02:45:11;;;;;;;0.55;0.40;;;5.30;99.90;;;;;;5053928;28;20025;-92
2020/12/18 02:47:37;;;;;;;0.10;0.10;;;5.20;99.90;;;;;;5053537;28;20143;-91
2020/12/18 02:50:03;;;;;;;0.17;0.17;;;5.30;99.90;;;;;;5053652;28;20025;-90
2020/12/18 02:52:29;;;;;;;0.35;0.30;;;5.20;99.90;;;;;;5043362;28;20469;-90
2020/12/18 02:54:54;;;;;;;0.55;0.55;;;5.20;99.90;;;;;;5060220;28;20128;-91
2020/12/18 02:57:20;;;;;;;0.00;0.00;;;5.20;99.90;;;;;;5069614;28;20679;-90
2020/12/18 02:59:46;;;;;;;0.10;0.10;;;5.20;99.90;;;;;;5051725;28;20527;-91
2020/12/18 03:02:11;;;;;;;0.10;0.10;;;5.20;99.90;;;;;;5055027;28;20020;-90
2020/12/18 03:04:37;;;;;;;0.65;0.63;;;5.20;99.90;;;;;;5068194;28;20773;-88
2020/12/18 03:07:03;;;;;;;2.42;0.80;;;5.20;99.90;;;;;;5052841;28;20040;-89
2020/12/18 03:09:29;;;;;;;2.85;0.38;;;5.10;99.90;;;;;;5051879;28;20471;-89
2020/12/18 03:11:54;;;;;;;0.30;0.30;;;5.10;99.90;;;;;;5051720;28;20024;-89
2020/12/18 03:14:20;;;;;;;0.10;0.10;;;5.10;99.90;;;;;;5064171;28;20032;-89
2020/12/18 03:16:46;;;;;;;11.93;2.50;;;5.10;99.90;;;;;;5054705;28;20024;-88
2020/12/18 03:19:12;;;;;;;0.17;0.17;;;5.10;99.90;;;;;;5056152;28;20069;-90
2020/12/18 03:21:38;;;;;;;0.13;0.13;;;5.10;99.90;;;;;;5062658;28;20024;-89
2020/12/18 03:24:04;;;;;;;0.10;0.10;;;5.10;99.90;;;;;;5065526;28;20151;-90
2020/12/18 03:26:30;;;;;;;0.22;0.22;;;5.00;99.90;;;;;;5072610;28;20017;-89
2020/12/18 03:28:56;;;;;;;0.10;0.10;;;5.10;99.90;;;;;;5050609;28;20029;-89
2020/12/18 03:31:21;;;;;;;0.38;0.38;;;5.00;99.90;;;;;;5049890;28;20066;-88
2020/12/18 03:33:47;;;;;;;0.20;0.20;;;5.00;99.90;;;;;;5062620;28;20545;-88
2020/12/18 03:36:13;;;;;;;0.15;0.15;;;5.00;99.90;;;;;;5060986;28;20031;-88
2020/12/18 03:38:39;;;;;;;1.83;0.63;;;4.90;99.90;;;;;;5054535;28;20024;-90
2020/12/18 03:41:06;;;;;;;0.13;0.13;;;4.90;99.90;;;;;;5075286;28;20067;-91
2020/12/18 03:43:32;;;;;;;0.10;0.10;;;5.00;99.90;;;;;;5058380;28;20130;-90
2020/12/18 03:45:58;;;;;;;0.10;0.10;;;4.90;99.90;;;;;;5057159;28;20027;-89
2020/12/18 03:48:24;;;;;;;0.25;0.25;;;4.90;99.90;;;;;;5057688;28;20036;-91
2020/12/18 03:50:50;;;;;;;0.10;0.10;;;4.90;99.90;;;;;;5058501;28;20081;-91
2020/12/18 03:53:16;;;;;;;0.00;0.00;;;4.90;99.90;;;;;;5056641;28;20024;-89
2020/12/18 03:55:42;;;;;;;0.10;0.10;;;4.90;99.90;;;;;;5073932;28;20032;-89
2020/12/18 03:58:07;;;;;;;0.40;0.40;;;4.90;99.90;;;;;;5055402;28;20029;-89
2020/12/18 04:00:33;;;;;;;0.20;0.20;;;4.90;99.90;;;;;;5045319;28;20020;-89
2020/12/18 04:02:59;;;;;;;0.10;0.10;;;4.80;99.90;;;;;;5043878;28;20052;-89
2020/12/18 04:05:24;;;;;;;0.20;0.20;;;4.80;99.90;;;;;;5069624;28;20032;-88
2020/12/18 04:07:50;;;;;;;0.13;0.13;;;4.80;99.90;;;;;;5049179;28;20033;-89
2020/12/18 04:10:16;;;;;;;0.55;0.55;;;4.80;99.90;;;;;;5049391;28;20055;-89
2020/12/18 04:12:42;;;;;;;0.20;0.20;;;4.80;99.90;;;;;;5071948;28;20052;-89
2020/12/18 04:15:07;;;;;;;0.20;0.20;;;4.80;99.90;;;;;;5053286;28;20028;-89
2020/12/18 04:17:33;;;;;;;0.38;0.17;;;4.90;99.90;;;;;;5054308;28;20021;-89
2020/12/18 04:19:59;;;;;;;0.25;0.25;;;4.80;99.90;;;;;;5058631;28;20050;-90
2020/12/18 04:22:25;;;;;;;0.40;0.40;;;4.80;99.90;;;;;;5040639;28;20024;-89
2020/12/18 04:24:50;;;;;;;6.40;1.40;;;4.80;99.90;;;;;;5071150;28;20025;-89
2020/12/18 04:27:16;;;;;;;0.75;0.60;;;4.80;99.90;;;;;;5052872;28;20033;-89
2020/12/18 04:29:42;;;;;;;0.68;0.43;;;4.80;99.90;;;;;;5068753;28;20105;-90
2020/12/18 04:32:08;;;;;;;0.10;0.10;;;4.80;99.90;;;;;;5065941;28;20058;-89
2020/12/18 04:34:33;;;;;;;0.10;0.10;;;4.80;99.90;;;;;;5054864;28;20025;-89
2020/12/18 04:36:59;;;;;;;0.10;0.10;;;4.80;99.90;;;;;;5045279;28;20032;-88
2020/12/18 04:39:25;;;;;;;0.32;0.32;;;4.80;99.90;;;;;;5044990;28;20029;-88
2020/12/18 04:41:51;;;;;;;0.57;0.57;;;4.80;99.90;;;;;;5068542;28;20033;-88
2020/12/18 04:44:17;;;;;;;0.10;0.10;;;4.70;99.90;;;;;;5041109;28;20112;-89
2020/12/18 04:46:43;;;;;;;0.03;0.03;;;4.70;99.90;;;;;;5068387;28;20036;-89
2020/12/18 04:49:10;;;;;;;0.17;0.17;;;4.70;99.90;;;;;;5070168;28;20032;-89
2020/12/18 04:51:42;;;;;;;0.20;0.20;;;4.70;99.90;;;;;;5064318;28;20063;-89
2020/12/18 04:54:11;;;;;;;0.30;0.30;;;4.70;99.90;;;;;;5046503;28;20025;-89
2020/12/18 04:56:40;;;;;;;0.25;0.25;;;4.70;99.90;;;;;;5050056;28;20028;-91
2020/12/18 04:59:06;;;;;;;0.17;0.17;;;4.70;99.90;;;;;;5068855;28;20178;-91
2020/12/18 05:01:32;;;;;;;0.28;0.28;;;4.70;99.90;;;;;;5055605;28;20107;-91
2020/12/18 05:04:00;;;;;;;1.30;0.57;;;4.70;99.90;;;;;;5056422;28;20493;-92
2020/12/18 05:06:26;;;;;;;0.10;0.10;;;4.70;99.90;;;;;;5052608;28;20021;-94
2020/12/18 05:08:52;;;;;;;0.10;0.10;;;4.70;99.90;;;;;;5052845;28;20109;-92
2020/12/18 05:11:23;;;;;;;1.30;0.45;;;4.70;99.90;;;;;;5056661;28;20021;-94
2020/12/18 05:13:52;;;;;;;0.10;0.10;;;4.70;99.90;;;;;;5057067;28;20032;-91
2020/12/18 05:16:19;;;;;;;0.20;0.20;;;4.60;99.90;;;;;;5071734;28;20020;-92
2020/12/18 05:18:45;;;;;;;14.93;2.78;;;4.70;99.90;;;;;;5057037;28;20049;-94
2020/12/18 05:21:11;;;;;;;0.43;0.43;;;4.60;99.90;;;;;;5057295;28;20021;-93
2020/12/18 05:23:39;;;;;;;0.22;0.22;;;4.60;99.90;;;;;;5057254;28;20074;-93
2020/12/18 05:26:06;;;;;;;0.32;0.32;;;4.70;99.90;;;;;;5054949;28;20029;-92
2020/12/18 05:28:42;;;;;;;0.32;0.32;;;4.60;99.90;;;;;;5061299;28;20047;-91
2020/12/18 05:31:10;;;;;;;1.65;1.15;;;4.60;99.90;;;;;;5055391;28;20036;-92
2020/12/18 05:33:36;;;;;;;0.10;0.10;;;4.60;99.90;;;;;;5056816;28;20036;-93
2020/12/18 05:36:02;;;;;;;0.10;0.10;;;4.60;99.90;;;;;;5055729;28;20535;-92
2020/12/18 05:38:28;;;;;;;0.10;0.10;;;4.60;99.90;;;;;;5054355;28;20207;-91
2020/12/18 05:40:58;;;;;;;0.30;0.30;;;4.60;99.90;;;;;;5062200;28;20120;-93
2020/12/18 05:43:24;;;;;;;0.30;0.30;;;4.50;99.90;;;;;;5055911;28;20016;-90
2020/12/18 05:45:49;;;;;;;0.55;0.55;;;4.60;99.90;;;;;;5051966;28;20714;-91
2020/12/18 05:48:15;;;;;;;0.20;0.20;;;4.50;99.90;;;;;;5053369;28;20040;-91
2020/12/18 05:50:41;;;;;;;0.10;0.10;;;4.60;99.90;;;;;;5055425;28;20115;-93
2020/12/18 05:53:10;;;;;;;0.10;0.10;;;4.60;99.90;;;;;;5054518;28;20127;-91
2020/12/18 05:55:40;;;;;;;0.57;0.57;;;4.50;99.90;;;;;;5073324;28;20283;-92
2020/12/18 05:58:12;;;;;;;0.28;0.28;;;4.50;99.90;;;;;;5056372;28;20390;-92
2020/12/18 06:00:40;;;;;;;0.20;0.20;;;4.50;99.90;;;;;;5055748;28;20048;-91
2020/12/18 06:03:11;;;;;;;0.82;0.82;;;4.50;99.90;;;;;;5055725;28;20063;-91
2020/12/18 06:05:38;;;;;;;0.65;0.25;;;4.50;99.90;;;;;;5053460;28;20138;-89
2020/12/18 06:08:16;;;;;;;0.40;0.40;;;4.40;99.90;;;;;;5035742;28;20402;-89
2020/12/18 06:10:42;;;;;;;0.28;0.28;;;4.50;99.90;;;;;;5051857;28;20032;-90
2020/12/18 06:13:08;;;;;;;0.10;0.10;;;4.50;99.90;;;;;;5049836;28;20626;-86
2020/12/18 06:15:34;;;;;;;0.20;0.20;;;4.40;99.90;;;;;;5050512;28;20020;-86
2020/12/18 06:18:04;;;;;;;0.20;0.20;;;4.40;99.90;;;;;;5068125;28;20044;-87
2020/12/18 06:20:35;;;;;;;0.60;0.60;;;4.40;99.90;;;;;;5065311;28;20699;-86
2020/12/18 06:23:03;;;;;;;0.20;0.20;;;4.40;99.90;;;;;;5066849;28;20028;-86
2020/12/18 06:25:29;;;;;;;0.15;0.15;;;4.40;99.90;;;;;;5066885;28;20490;-86
2020/12/18 06:28:00;;;;;;;0.10;0.10;;;4.30;99.90;;;;;;5066901;28;20034;-86
2020/12/18 06:30:27;;;;;;;0.10;0.10;;;4.30;99.90;;;;;;5068318;28;20412;-85
2020/12/18 06:32:53;;;;;;;0.00;0.00;;;4.30;99.90;;;;;;5050171;28;20413;-86
2020/12/18 06:35:32;;;;;;;0.23;0.23;;;4.30;99.90;;;;;;5061009;28;20425;-86
2020/12/18 06:38:20;;;;;;;0.65;0.40;;;4.30;99.90;;;;;;5066652;28;20051;-86
2020/12/18 06:40:46;;;;;;;0.10;0.10;;;4.20;99.90;;;;;;5064983;28;20366;-87
2020/12/18 06:43:12;;;;;;;0.32;0.32;;;4.20;99.90;;;;;;5059876;28;20016;-85
2020/12/18 06:45:38;;;;;;;0.43;0.43;;;4.20;99.90;;;;;;5060105;28;20039;-85
2020/12/18 06:48:26;;;;;;;0.35;0.35;;;4.20;99.90;;;;;;5066776;28;20024;-88
2020/12/18 06:50:52;;;;;;;0.00;0.00;;;4.20;99.90;;;;;;5064600;28;20089;-87
2020/12/18 06:53:17;;;;;;;0.35;0.35;;;4.20;99.90;;;;;;5068092;28;20447;-86
2020/12/18 06:55:43;;;;;;;0.20;0.20;;;4.20;99.90;;;;;;5068170;28;20771;-87
2020/12/18 06:58:14;;;;;;;0.10;0.10;;;4.10;99.90;;;;;;5067633;28;20059;-87
2020/12/18 07:00:57;;;;;;;4.18;1.88;;;4.10;99.90;;;;;;5050836;28;20032;-88
2020/12/18 07:03:35;;;;;;;0.28;0.28;;;4.10;99.90;;;;;;5072407;28;20021;-87
2020/12/18 07:06:03;;;;;;;0.10;0.10;;;4.10;99.90;;;;;;5052740;28;20481;-87
2020/12/18 07:08:31;;;;;;;0.10;0.10;;;4.10;99.90;;;;;;5054193;28;20032;-84
2020/12/18 07:11:12;;;;;;;0.13;0.13;;;4.10;99.90;;;;;;5053191;28;20067;-86
2020/12/18 07:13:46;;;;;;;0.10;0.10;;;4.10;99.90;;;;;;5067391;28;20450;-86
2020/12/18 07:16:12;;;;;;;0.30;0.30;;;4.10;99.90;;;;;;5063965;28;20029;-87
2020/12/18 07:18:41;;;;;;;0.10;0.10;;;4.10;99.90;;;;;;5072226;28;20079;-88
2020/12/18 07:21:14;;;;;;;0.10;0.10;;;4.10;99.90;;;;;;5064061;28;20021;-88
2020/12/18 07:23:42;;;;;;;0.10;0.10;;;4.10;99.90;;;;;;5066857;28;20021;-89
2020/12/18 07:26:08;;;;;;;0.22;0.22;;;4.10;99.90;;;;;;5071707;28;20063;-88
2020/12/18 07:28:37;;;;;;;0.00;0.00;;;4.10;99.90;;;;;;5071588;28;20047;-88
2020/12/18 07:31:04;;;;;;;0.65;0.52;;;4.10;99.90;;;;;;5053545;28;21568;-88
2020/12/18 07:33:30;;;;;;;0.28;0.28;;;4.10;99.90;;;;;;5071715;28;20149;-87
2020/12/18 07:35:56;;;;;;;2.20;0.73;;;4.10;99.90;;;;;;5071286;28;20040;-87
2020/12/18 07:38:33;;;;;;;0.50;0.50;;;4.10;99.90;;;;;;5071686;28;20024;-87
2020/12/18 07:41:02;;;;;;;0.10;0.10;;;4.20;99.90;;;;;;5064893;28;20103;-87
2020/12/18 07:43:37;;;;;;;0.10;0.10;;;4.20;99.90;;;;;;5053491;28;20031;-87
2020/12/18 07:46:05;;;;;;;0.30;0.30;;;4.30;99.90;;;;;;5058056;28;20029;-87
2020/12/18 07:48:35;;;;;;;0.10;0.10;;;4.30;99.90;;;;;;5070485;28;20109;-87
2020/12/18 07:51:09;;;;;;;0.08;0.08;;;4.30;99.90;;;;;;5053390;28;20504;-87
2020/12/18 07:53:38;;;;;;;0.10;0.10;;;4.40;99.90;;;;;;5071361;28;20036;-88
2020/12/18 07:56:18;;;;;;;0.20;0.20;;;4.30;99.90;;;;;;5053084;28;20182;-87
2020/12/18 07:58:48;;;;;;;0.15;0.15;;;4.30;99.90;;;;;;5071125;28;20054;-88
2020/12/18 08:01:24;;;;;;;1.10;1.02;;;4.30;99.90;;;;;;5071072;28;20024;-88
2020/12/18 08:04:00;;;;;;;0.10;0.10;;;4.30;99.90;;;;;;5071146;28;20497;-87
2020/12/18 08:06:31;;;;;;;0.52;0.52;;;4.30;99.90;;;;;;5071089;28;20044;-88
2020/12/18 08:09:01;;;;;;;0.52;0.43;;;4.30;99.90;;;;;;5066656;28;20040;-87
2020/12/18 08:11:29;;;;;;;0.75;0.75;;;4.30;99.90;;;;;;5071329;28;20028;-87
2020/12/18 08:13:56;;;;;;;0.22;0.22;;;4.40;99.90;;;;;;5069365;28;20021;-87
2020/12/18 08:16:27;;;;;;;0.17;0.17;;;4.30;99.90;;;;;;5052996;28;20501;-87
2020/12/18 08:18:57;;;;;;;0.63;0.63;;;4.40;99.90;;;;;;5070371;28;20041;-87
2020/12/18 08:21:29;;;;;;;0.43;0.43;;;4.60;99.90;;;;;;5070883;28;20032;-88
2020/12/18 08:24:24;;;;;;;0.17;0.17;;;4.50;99.90;;;;;;5067162;28;20052;-88
2020/12/18 08:27:05;;;;;;;0.10;0.10;;;4.70;99.90;;;;;;5059307;28;20116;-88
2020/12/18 08:29:32;;;;;;;0.20;0.20;;;4.70;99.90;;;;;;5070402;28;20016;-88
2020/12/18 08:32:03;;;;;;;0.30;0.30;;;4.80;99.90;;;;;;5052881;28;20131;-88
2020/12/18 08:34:31;;;;;;;0.73;0.57;;;4.70;99.90;;;;;;5052592;28;20040;-87
2020/12/18 08:36:58;;;;;;;0.28;0.28;;;4.70;99.90;;;;;;5070853;28;20128;-87
2020/12/18 08:39:29;;;;;;;0.38;0.38;;;4.70;99.90;;;;;;5070165;28;20103;-87
2020/12/18 08:41:55;;;;;;;0.30;0.30;;;4.80;99.90;;;;;;5070619;28;20056;-87
2020/12/18 08:44:27;;;;;;;0.10;0.10;;;4.90;99.90;;;;;;5070239;28;20513;-87
2020/12/18 08:46:53;;;;;;;0.10;0.10;;;5.10;99.90;;;;;;5070459;28;20035;-87
2020/12/18 08:49:22;;;;;;;0.30;0.30;;;5.10;99.90;;;;;;5049987;28;20107;-87
2020/12/18 08:51:52;;;;;;;1.25;1.15;;;5.10;99.90;;;;;;5068774;28;20050;-86
2020/12/18 08:54:35;;;;;;;0.13;0.13;;;5.30;99.90;;;;;;5070771;28;20516;-87
2020/12/18 08:57:31;;;;;;;0.10;0.10;;;5.30;99.90;;;;;;5070340;28;20056;-88
2020/12/18 09:00:04;;;;;;;0.30;0.30;;;5.30;99.90;;;;;;5066511;28;20036;-87
2020/12/18 09:02:32;;;;;;;0.70;0.35;;;5.50;99.90;;;;;;5063599;28;20417;-89
2020/12/18 09:05:23;;;;;;;0.30;0.30;;;5.60;99.90;;;;;;5038635;28;20064;-90
2020/12/18 09:07:58;;;;;;;0.10;0.10;;;6.20;99.90;;;;;;5033966;28;20501;-90
2020/12/18 09:10:27;;;;;;;0.20;0.20;;;6.20;1.00;;;;;;5049806;28;20025;-90
2020/12/18 09:12:56;;;;;;;0.00;0.00;;;6.40;99.90;;;;;;5052577;28;20033;-90
2020/12/18 09:15:29;;;;;;;1.02;0.95;;;6.30;42.40;;;;;;5062904;28;20865;-87
2020/12/18 09:18:04;;;;;;;0.10;0.10;;;6.70;41.10;;;;;;5069858;28;20036;-87
2020/12/18 09:20:32;;;;;;;0.28;0.28;;;7.40;99.90;;;;;;5050436;28;20603;-88
2020/12/18 09:23:26;;;;;;;0.10;0.10;;;7.80;99.90;;;;;;5067173;28;20742;-87
2020/12/18 09:25:52;;;;;;;0.35;0.35;;;8.60;1.00;;;;;;5068341;28;20040;-85
2020/12/18 09:28:19;;;;;;;0.20;0.20;;;8.90;1.00;;;;;;5062533;28;20410;-86
2020/12/18 09:30:56;;;;;;;0.20;0.20;;;9.50;1.00;;;;;;5063217;28;20044;-87
2020/12/18 09:33:25;;;;;;;2.33;1.08;;;9.90;99.90;;;;;;5056038;28;20030;-86
2020/12/18 09:36:01;;;;;;;0.95;0.95;;;10.00;99.90;;;;;;5051729;28;20400;-86
2020/12/18 09:38:42;;;;;;;0.10;0.10;;;9.90;99.90;;;;;;5069405;28;20096;-86
2020/12/18 09:41:17;;;;;;;0.10;0.10;;;9.70;99.90;;;;;;5069579;28;20052;-86
2020/12/18 09:43:43;;;;;;;0.40;0.40;;;9.90;99.90;;;;;;5051186;28;20028;-86
2020/12/18 09:46:12;;;;;;;0.50;0.50;;;10.60;99.90;;;;;;5069364;28;20025;-86
2020/12/18 09:48:40;;;;;;;0.28;0.28;;;10.50;99.90;;;;;;5055549;28;20103;-86
2020/12/18 09:51:07;;;;;;;0.30;0.30;;;10.90;99.90;;;;;;5069309;28;20023;-86
2020/12/18 09:53:32;;;;;;;0.40;0.40;;;11.80;99.90;;;;;;5068252;28;20568;-86
2020/12/18 09:55:58;;;;;;;0.17;0.17;;;11.40;99.90;;;;;;5068788;28;20025;-86
2020/12/18 09:58:25;;;;;;;0.13;0.13;;;11.10;99.90;;;;;;5068934;28;20087;-86
2020/12/18 10:00:51;;;;;;;0.10;0.10;;;11.90;99.90;;;;;;5069063;28;20024;-86
2020/12/18 10:03:16;;;;;;;0.87;0.87;;;10.40;99.90;;;;;;5068096;28;20024;-86
2020/12/18 10:05:46;;;;;;;0.50;0.50;;;11.80;99.90;;;;;;5068652;28;20401;-86
2020/12/18 10:08:12;;;;;;;0.30;0.30;;;12.20;99.90;;;;;;5050698;28;20828;-85
2020/12/18 10:10:38;;;;;;;0.87;0.87;;;11.70;99.90;;;;;;5068518;28;20069;-86
2020/12/18 10:13:04;;;;;;;0.10;0.10;;;12.40;99.90;;;;;;5068777;28;20427;-85
2020/12/18 10:15:30;;;;;;;0.10;0.10;;;11.70;99.90;;;;;;5067988;28;20032;-85
2020/12/18 10:17:56;;;;;;;0.82;0.80;;;13.00;99.90;;;;;;5068371;28;20082;-85
2020/12/18 10:20:22;;;;;;;2.03;1.33;;;12.80;99.90;;;;;;5068656;28;20868;-85
2020/12/18 10:22:48;;;;;;;1.80;1.67;;;13.00;99.90;;;;;;5049999;28;20111;-85
2020/12/18 10:25:14;;;;;;;0.20;0.20;;;13.30;99.90;;;;;;5068465;28;20086;-85
2020/12/18 10:27:40;;;;;;;0.15;0.15;;;13.90;99.90;;;;;;5068325;28;20271;-85
2020/12/18 10:30:07;;;;;;;0.80;0.80;;;13.00;99.90;;;;;;5050698;28;20047;-85
2020/12/18 10:32:33;;;;;;;;;;;12.90;99.90;;;;;;5068974;28;20028;-85
2020/12/18 10:34:59;;;;;;;0.30;0.30;;;13.30;99.90;;;;;;5068115;28;19966;-85
2020/12/18 10:37:27;;;;;;;0.10;0.10;;;13.20;99.90;;;;;;5067634;28;20028;-85
2020/12/18 10:39:53;;;;;;;0.25;0.25;;;13.50;99.90;;;;;;5067838;28;20031;-85
2020/12/18 10:42:20;;;;;;;0.27;0.27;;;14.00;99.90;;;;;;5068387;28;20025;-85
2020/12/18 10:44:46;;;;;;;0.80;0.80;;;13.90;99.90;;;;;;5049845;28;20093;-85
2020/12/18 10:47:12;;;;;;;0.20;0.20;;;14.00;99.90;;;;;;5068415;28;20038;-85
2020/12/18 10:49:38;;;;;;;2.00;1.20;;;14.20;99.90;;;;;;5049775;28;20573;-85
2020/12/18 10:52:05;;;;;;;0.40;0.40;;;13.90;99.90;;;;;;5049858;28;20119;-85
2020/12/18 10:54:31;;;;;;;0.10;0.10;;;13.70;99.90;;;;;;5068050;28;20046;-85
2020/12/18 10:56:57;;;;;;;0.93;0.53;;;13.90;99.90;;;;;;5067414;28;20029;-87
2020/12/18 10:59:24;;;;;;;0.32;0.32;;;14.10;99.90;;;;;;5067839;28;20028;-88
2020/12/18 11:01:54;;;;;;;0.43;0.43;;;14.40;99.90;;;;;;5050022;28;20493;-87
2020/12/18 11:04:20;;;;;;;0.10;0.10;;;14.30;99.90;;;;;;5068121;28;20032;-87
2020/12/18 11:06:47;;;;;;;0.15;0.15;;;15.20;99.90;;;;;;5067750;28;20389;-87
2020/12/18 11:09:13;;;;;;;0.15;0.15;;;15.20;99.90;;;;;;5068124;28;20101;-87
2020/12/18 11:11:39;;;;;;;0.55;0.55;;;15.70;99.90;;;;;;5050222;28;20029;-86
2020/12/18 11:14:05;;;;;;;0.57;0.57;;;16.00;99.90;;;;;;5053399;28;20032;-87
2020/12/18 11:16:32;;;;;;;0.43;0.43;;;16.10;99.90;;;;;;5068110;28;20029;-87
2020/12/18 11:19:01;;;;;;;0.30;0.30;;;16.70;99.90;;;;;;5049356;28;20131;-87
2020/12/18 11:21:30;;;;;;;1.65;1.13;;;16.30;99.90;;;;;;5067795;28;20020;-87
2020/12/18 11:23:57;;;;;;;18.30;1.58;;;16.80;99.90;;;;;;5049557;28;20158;-87
2020/12/18 11:26:24;;;;;;;0.63;0.63;;;16.60;99.90;;;;;;5067931;28;20036;-87
2020/12/18 11:28:50;;;;;;;;;;;16.40;99.90;;;;;;5050351;28;20105;-87
2020/12/18 11:31:16;;;;;;;0.10;0.10;;;16.50;99.90;;;;;;5068004;28;20684;-86
2020/12/18 11:33:42;;;;;;;10.73;1.48;;;17.00;99.90;;;;;;5067619;28;20036;-87
2020/12/18 11:36:08;;;;;;;0.45;0.45;;;16.90;99.90;;;;;;5067309;28;20036;-87
2020/12/18 11:38:33;;;;;;;0.75;0.75;;;16.80;99.90;;;;;;5068056;28;20704;-87
2020/12/18 11:40:59;;;;;;;0.20;0.20;;;17.30;99.90;;;;;;5067471;28;20040;-87
2020/12/18 11:43:25;;;;;;;0.50;0.50;;;17.00;99.90;;;;;;5067912;28;20025;-87
2020/12/18 11:45:51;;;;;;;0.10;0.10;;;16.90;99.90;;;;;;5049624;28;20064;-87
2020/12/18 11:48:16;;;;;;;0.40;0.40;;;17.00;99.90;;;;;;5069930;28;20048;-87
2020/12/18 11:50:42;;;;;;;1.02;0.90;;;14.80;99.90;;;;;;5053075;28;20553;-86
2020/12/18 11:53:09;;;;;;;0.95;0.95;;;11.90;99.90;;;;;;5070616;28;20056;-86
2020/12/18 11:55:35;;;;;;;0.90;0.88;;;10.30;99.90;;;;;;5071154;28;20124;-87
2020/12/18 11:58:01;;;;;;;0.70;0.45;;;10.00;99.90;;;;;;5071108;28;20452;-85
2020/12/18 12:00:27;;;;;;;0.15;0.15;;;10.00;99.90;;;;;;5051743;28;20047;-87
2020/12/18 12:02:53;;;;;;;0.32;0.30;;;9.90;99.90;;;;;;5064947;28;20134;-87
2020/12/18 12:05:23;;;;;;;0.17;0.17;;;10.00;99.90;;;;;;5067847;28;20032;-86
2020/12/18 12:07:50;;;;;;;0.28;0.28;;;10.20;99.90;;;;;;5069887;28;20105;-89
2020/12/18 12:10:19;;;;;;;0.10;0.10;;;10.30;99.90;;;;;;5052449;28;20501;-89
2020/12/18 12:12:48;;;;;;;0.25;0.25;;;10.40;99.90;;;;;;5069538;28;20036;-87
2020/12/18 12:15:15;;;;;;;0.45;0.45;;;10.50;99.90;;;;;;5065895;28;20061;-87
2020/12/18 12:17:41;;;;;;;1.55;1.45;;;10.50;99.90;;;;;;5044036;28;20506;-90
2020/12/18 12:20:07;;;;;;;0.35;0.35;;;10.60;99.90;;;;;;5064434;28;20070;-89
2020/12/18 12:22:33;;;;;;;0.43;0.28;;;10.70;99.90;;;;;;5050990;28;20024;-89
2020/12/18 12:24:59;;;;;;;0.32;0.32;;;10.80;99.90;;;;;;5069666;28;20409;-88
2020/12/18 12:27:26;;;;;;;0.43;0.35;;;10.70;99.90;;;;;;5046798;28;20032;-89
2020/12/18 12:29:53;;;;;;;0.77;0.77;;;10.80;99.90;;;;;;5059092;28;20032;-89
2020/12/18 12:32:19;;;;;;;0.10;0.10;;;10.90;99.90;;;;;;5067084;28;20466;-88
2020/12/18 12:34:45;;;;;;;0.60;0.50;;;10.90;99.90;;;;;;5068417;28;20060;-88
2020/12/18 12:37:12;;;;;;;0.70;0.70;;;10.90;99.90;;;;;;5069376;28;20060;-88
2020/12/18 12:39:39;;;;;;;0.30;0.30;;;11.00;99.90;;;;;;5050098;28;20418;-88
2020/12/18 12:42:05;;;;;;;0.20;0.20;;;10.90;99.90;;;;;;5066888;28;20056;-91
2020/12/18 12:44:31;;;;;;;0.60;0.60;;;11.00;99.90;;;;;;5048496;28;20016;-94
2020/12/18 12:46:57;;;;;;;0.10;0.10;;;10.90;99.90;;;;;;5051891;28;20036;-89
2020/12/18 12:49:28;;;;;;;0.35;0.35;;;11.00;99.90;;;;;;5067328;28;20024;-90
2020/12/18 12:52:02;;;;;;;0.55;0.55;;;11.10;99.90;;;;;;5057091;28;20043;-87
2020/12/18 12:54:31;;;;;;;0.20;0.20;;;11.30;99.90;;;;;;5063373;28;20036;-87
2020/12/18 12:56:59;;;;;;;1.38;1.02;;;11.50;99.90;;;;;;5062904;28;20021;-90
2020/12/18 12:59:25;;;;;;;0.20;0.20;;;11.70;99.90;;;;;;5021590;28;20029;-90
2020/12/18 13:01:50;;;;;;;4.18;1.17;;;11.60;99.90;;;;;;5068900;28;20024;-89